createdAt,value
2023-05-18T00:01:16.388Z,0.80
2023-05-18T00:03:43.286Z,0.63
2023-05-18T00:06:10.324Z,0.70
2023-05-18T00:08:38.307Z,0.80
2023-05-18T00:11:06.101Z,1.20
2023-05-18T00:13:32.827Z,0.80
2023-05-18T00:15:59.653Z,0.83
2023-05-18T00:18:26.652Z,1.17
2023-05-18T00:21:00.349Z,0.80
2023-05-18T00:23:32.857Z,1.13
2023-05-18T00:26:01.285Z,0.90
2023-05-18T00:28:28.746Z,0.80
2023-05-18T00:30:56.068Z,0.80
2023-05-18T00:33:23.211Z,0.90
2023-05-18T00:35:49.876Z,1.03
2023-05-18T00:38:16.622Z,1.00
2023-05-18T00:40:43.671Z,0.80
2023-05-18T00:43:10.629Z,0.90
2023-05-18T00:45:37.311Z,0.93
2023-05-18T00:48:04.459Z,0.90
2023-05-18T00:50:31.751Z,0.77
2023-05-18T00:52:58.943Z,0.63
2023-05-18T00:55:27.834Z,0.83
2023-05-18T00:57:56.418Z,0.80
2023-05-18T01:00:23.829Z,1.00
2023-05-18T01:02:51.150Z,0.70
2023-05-18T01:05:18.115Z,0.80
2023-05-18T01:07:44.840Z,0.77
2023-05-18T01:10:13.390Z,0.87
2023-05-18T01:12:49.125Z,0.80
2023-05-18T01:15:20.499Z,0.80
2023-05-18T01:18:05.643Z,0.87
2023-05-18T01:20:48.917Z,0.90
2023-05-18T01:23:20.446Z,0.83
2023-05-18T01:25:56.213Z,0.80
2023-05-18T01:28:30.260Z,0.77
2023-05-18T01:30:58.198Z,1.13
2023-05-18T01:33:25.583Z,0.80
2023-05-18T01:35:52.479Z,1.10
2023-05-18T01:38:23.914Z,1.00
2023-05-18T01:41:18.481Z,0.70
2023-05-18T01:44:07.800Z,1.13
2023-05-18T01:46:46.364Z,0.97
2023-05-18T01:49:31.210Z,0.80
2023-05-18T01:52:03.199Z,0.70
2023-05-18T01:54:31.880Z,1.03
2023-05-18T01:56:59.098Z,0.90
2023-05-18T01:59:26.112Z,1.00
2023-05-18T02:01:59.509Z,0.67
2023-05-18T02:04:27.456Z,0.47
2023-05-18T02:06:54.416Z,0.80
2023-05-18T02:09:21.814Z,0.77
2023-05-18T02:11:49.370Z,0.73
2023-05-18T02:14:16.248Z,0.67
2023-05-18T02:16:47.464Z,0.90
2023-05-18T02:19:14.786Z,0.73
2023-05-18T02:21:43.393Z,0.80
2023-05-18T02:24:10.754Z,0.90
2023-05-18T02:26:37.563Z,1.07
2023-05-18T02:29:09.352Z,0.57
2023-05-18T02:31:36.675Z,0.83
2023-05-18T02:34:03.480Z,0.70
2023-05-18T02:36:37.168Z,0.83
2023-05-18T02:39:04.811Z,0.90
2023-05-18T02:41:31.549Z,0.80
2023-05-18T02:43:58.196Z,0.70
2023-05-18T02:46:25.103Z,1.23
2023-05-18T02:48:51.891Z,1.10
2023-05-18T02:51:18.581Z,0.90
2023-05-18T02:53:45.229Z,0.67
2023-05-18T02:56:12.907Z,0.70
2023-05-18T02:58:40.079Z,1.00
2023-05-18T03:01:09.448Z,0.67
2023-05-18T03:03:36.136Z,0.83
2023-05-18T03:06:02.857Z,0.90
2023-05-18T03:08:31.398Z,0.80
2023-05-18T03:10:58.784Z,0.70
2023-05-18T03:13:26.123Z,1.00
2023-05-18T03:15:52.773Z,0.83
2023-05-18T03:18:19.367Z,0.70
2023-05-18T03:20:46.228Z,0.90
2023-05-18T03:23:12.905Z,0.80
2023-05-18T03:25:39.534Z,0.87
2023-05-18T03:28:06.480Z,0.90
2023-05-18T03:30:33.792Z,1.07
2023-05-18T03:33:03.577Z,0.87
2023-05-18T03:35:30.556Z,0.90
2023-05-18T03:37:57.392Z,0.73
2023-05-18T03:40:25.198Z,0.90
2023-05-18T03:42:51.909Z,0.90
2023-05-18T03:45:19.026Z,0.90
2023-05-18T03:47:45.797Z,1.33
2023-05-18T03:50:12.671Z,0.60
2023-05-18T03:52:39.909Z,1.47
2023-05-18T03:55:06.914Z,0.77
2023-05-18T03:57:33.576Z,1.30
2023-05-18T04:00:00.734Z,0.87
2023-05-18T04:02:27.565Z,1.00
2023-05-18T04:04:54.401Z,1.20
2023-05-18T04:07:24.274Z,1.00
2023-05-18T04:09:55.562Z,0.97
2023-05-18T04:12:23.017Z,1.00
2023-05-18T04:14:49.774Z,0.83
2023-05-18T04:17:23.265Z,0.80
2023-05-18T04:19:50.572Z,0.80
2023-05-18T04:22:17.358Z,1.23
2023-05-18T04:24:47.266Z,0.73
2023-05-18T04:27:15.076Z,0.83
2023-05-18T04:29:43.804Z,0.90
2023-05-18T04:32:10.748Z,0.80
2023-05-18T04:34:37.592Z,1.20
2023-05-18T04:37:07.856Z,0.90
2023-05-18T04:39:35.048Z,1.10
2023-05-18T04:42:04.516Z,0.90
2023-05-18T04:44:34.872Z,0.60
2023-05-18T04:47:01.570Z,0.80
2023-05-18T04:49:28.357Z,1.20
2023-05-18T04:51:56.193Z,0.73
2023-05-18T04:54:24.333Z,1.10
2023-05-18T04:56:52.312Z,1.17
2023-05-18T04:59:19.250Z,0.97
2023-05-18T05:01:46.347Z,1.20
2023-05-18T05:04:13.591Z,1.03
2023-05-18T05:06:40.289Z,1.00
2023-05-18T05:09:07.216Z,1.50
2023-05-18T05:11:34.601Z,1.50
2023-05-18T05:14:03.039Z,1.20
2023-05-18T05:16:29.844Z,1.40
2023-05-18T05:18:56.686Z,1.13
2023-05-18T05:21:23.537Z,1.37
2023-05-18T05:23:50.230Z,1.33
2023-05-18T05:26:17.503Z,1.37
2023-05-18T05:28:44.217Z,1.30
2023-05-18T05:31:11.035Z,0.80
2023-05-18T05:33:38.003Z,1.37
2023-05-18T05:36:05.342Z,0.93
2023-05-18T05:38:32.511Z,1.00
2023-05-18T05:40:59.148Z,1.37
2023-05-18T05:43:25.967Z,1.20
2023-05-18T05:45:52.741Z,0.97
2023-05-18T05:48:19.348Z,1.10
2023-05-18T05:50:46.495Z,1.10
2023-05-18T05:53:13.195Z,0.73
2023-05-18T05:55:41.240Z,1.60
2023-05-18T05:58:09.349Z,1.33
2023-05-18T06:00:36.633Z,1.30
2023-05-18T06:03:03.660Z,1.30
2023-05-18T06:05:30.475Z,1.10
2023-05-18T06:07:57.587Z,1.60
2023-05-18T06:10:24.287Z,1.37
2023-05-18T06:12:50.965Z,1.00
2023-05-18T06:15:18.582Z,1.00
2023-05-18T06:17:45.467Z,0.90
2023-05-18T06:20:12.718Z,0.93
2023-05-18T06:22:39.672Z,1.00
2023-05-18T06:25:06.858Z,1.00
2023-05-18T06:27:33.450Z,1.17
2023-05-18T06:30:00.205Z,1.00
2023-05-18T06:32:26.951Z,0.90
2023-05-18T06:34:53.610Z,1.10
2023-05-18T06:37:21.256Z,1.30
2023-05-18T06:39:47.866Z,0.93
2023-05-18T06:42:14.498Z,1.30
2023-05-18T06:44:41.105Z,1.07
2023-05-18T06:47:07.911Z,1.50
2023-05-18T06:49:34.518Z,1.13
2023-05-18T06:52:01.175Z,1.80
2023-05-18T06:54:29.408Z,1.90
2023-05-18T06:56:56.128Z,1.53
2023-05-18T06:59:23.038Z,1.40
2023-05-18T07:01:49.709Z,1.37
2023-05-18T07:04:17.928Z,1.63
2023-05-18T07:06:44.897Z,1.30
2023-05-18T07:09:12.010Z,1.50
2023-05-18T07:11:40.341Z,1.33
2023-05-18T07:14:07.094Z,1.47
2023-05-18T07:16:34.193Z,1.07
2023-05-18T07:19:00.948Z,1.57
2023-05-18T07:21:27.688Z,1.10
2023-05-18T07:23:54.299Z,1.03
2023-05-18T07:26:22.403Z,1.27
2023-05-18T07:28:49.550Z,1.13
2023-05-18T07:31:16.627Z,1.10
2023-05-18T07:33:44.527Z,1.60
2023-05-18T07:36:11.360Z,1.53
2023-05-18T07:38:38.042Z,1.43
2023-05-18T07:41:04.732Z,1.50
2023-05-18T07:43:31.406Z,1.37
2023-05-18T07:45:58.012Z,1.20
2023-05-18T07:48:24.665Z,1.27
2023-05-18T07:50:51.594Z,1.30
2023-05-18T07:53:18.524Z,1.57
2023-05-18T07:55:45.602Z,0.97
2023-05-18T07:58:13.286Z,1.40
2023-05-18T08:00:39.907Z,1.50
2023-05-18T08:03:06.872Z,1.20
2023-05-18T08:05:33.729Z,1.10
2023-05-18T08:08:00.556Z,1.30
2023-05-18T08:10:27.223Z,1.10
2023-05-18T08:12:53.908Z,1.43
2023-05-18T08:15:20.792Z,1.30
2023-05-18T08:17:47.499Z,1.20
2023-05-18T08:20:14.228Z,1.80
2023-05-18T08:22:41.028Z,1.40
2023-05-18T08:25:08.039Z,1.13
2023-05-18T08:27:34.635Z,1.10
2023-05-18T08:30:01.611Z,1.40
2023-05-18T08:32:28.288Z,1.23
2023-05-18T08:34:54.908Z,1.60
2023-05-18T08:37:22.089Z,1.30
2023-05-18T08:39:48.793Z,1.60
2023-05-18T08:42:48.508Z,1.60
2023-05-18T08:45:23.573Z,1.63
2023-05-18T08:47:51.427Z,1.30
2023-05-18T08:50:23.460Z,1.23
2023-05-18T08:52:55.332Z,1.40
2023-05-18T08:55:23.646Z,1.23
2023-05-18T08:57:56.067Z,1.70
2023-05-18T09:00:24.654Z,1.17
2023-05-18T09:02:51.965Z,1.27
2023-05-18T09:05:20.297Z,1.10
2023-05-18T09:07:47.465Z,1.23
2023-05-18T09:10:15.319Z,1.40
2023-05-18T09:12:43.725Z,1.70
2023-05-18T09:15:11.268Z,1.30
2023-05-18T09:17:37.957Z,1.47
2023-05-18T09:20:08.447Z,1.90
2023-05-18T09:22:41.228Z,2.10
2023-05-18T09:25:11.769Z,1.80
2023-05-18T09:27:39.131Z,1.30
2023-05-18T09:30:11.103Z,1.40
2023-05-18T09:32:38.086Z,1.33
2023-05-18T09:35:06.406Z,1.35
2023-05-18T09:37:33.956Z,1.50
2023-05-18T09:40:04.915Z,1.42
2023-05-18T09:42:37.468Z,1.25
2023-05-18T09:45:28.493Z,1.50
2023-05-18T09:47:55.439Z,1.52
2023-05-18T09:50:26.071Z,1.23
2023-05-18T09:52:52.835Z,1.50
2023-05-18T09:55:20.367Z,1.50
2023-05-18T09:57:49.531Z,1.50
2023-05-18T10:00:17.159Z,1.07
2023-05-18T10:02:52.080Z,1.48
2023-05-18T10:05:23.530Z,1.38
2023-05-18T10:07:51.509Z,1.48
2023-05-18T10:10:20.313Z,1.27
2023-05-18T10:12:48.039Z,1.30
2023-05-18T10:15:16.331Z,1.80
2023-05-18T10:17:44.934Z,1.48
2023-05-18T10:20:21.368Z,1.75
2023-05-18T10:22:49.076Z,1.30
2023-05-18T10:25:19.972Z,1.48
2023-05-18T10:27:49.181Z,1.60
2023-05-18T10:30:17.687Z,1.60
2023-05-18T10:32:45.579Z,1.63
2023-05-18T10:35:13.970Z,1.40
2023-05-18T10:37:47.747Z,1.52
2023-05-18T10:40:15.676Z,1.60
2023-05-18T10:42:43.414Z,1.42
2023-05-18T10:45:10.623Z,1.48
2023-05-18T10:47:42.382Z,1.50
2023-05-18T10:50:09.898Z,1.55
2023-05-18T10:52:41.398Z,1.52
2023-05-18T10:55:09.046Z,2.00
2023-05-18T10:57:40.735Z,1.30
2023-05-18T11:00:10.636Z,1.90
2023-05-18T11:02:42.124Z,1.60
2023-05-18T11:05:10.256Z,1.65
2023-05-18T11:07:37.488Z,1.48
2023-05-18T11:10:10.050Z,1.90
2023-05-18T11:12:38.658Z,1.70
2023-05-18T11:15:05.957Z,2.00
2023-05-18T11:17:32.899Z,1.92
2023-05-18T11:20:05.524Z,1.60
2023-05-18T11:22:59.151Z,2.00
2023-05-18T11:25:25.794Z,1.60
2023-05-18T11:27:53.504Z,1.60
2023-05-18T11:30:30.313Z,1.70
2023-05-18T11:33:14.871Z,1.65
2023-05-18T11:36:09.082Z,1.73
2023-05-18T11:38:55.595Z,1.70
2023-05-18T11:41:38.921Z,1.63
2023-05-18T11:44:11.745Z,1.80
2023-05-18T11:46:50.732Z,1.83
2023-05-18T11:49:19.929Z,1.70
2023-05-18T11:52:09.403Z,1.60
2023-05-18T11:54:42.674Z,1.65
2023-05-18T11:57:11.119Z,1.70
2023-05-18T11:59:41.012Z,1.98
2023-05-18T12:02:11.374Z,1.85
2023-05-18T12:04:44.830Z,1.88
2023-05-18T12:07:11.958Z,1.80
2023-05-18T12:09:46.931Z,1.73
2023-05-18T12:12:17.249Z,1.40
2023-05-18T12:14:47.163Z,1.88
2023-05-18T12:17:14.004Z,1.42
2023-05-18T12:19:44.783Z,1.90
2023-05-18T12:22:11.993Z,1.70
2023-05-18T12:24:43.250Z,2.00
2023-05-18T12:27:11.967Z,1.67
2023-05-18T12:29:42.817Z,1.65
2023-05-18T12:32:11.911Z,1.70
2023-05-18T12:34:39.696Z,1.73
2023-05-18T12:37:07.915Z,1.60
2023-05-18T12:39:35.106Z,1.55
2023-05-18T12:42:15.212Z,1.88
2023-05-18T12:44:45.828Z,1.70
2023-05-18T12:47:13.555Z,2.08
2023-05-18T12:49:42.324Z,1.98
2023-05-18T12:52:13.713Z,1.92
2023-05-18T12:54:55.168Z,2.40
2023-05-18T12:57:25.463Z,1.77
2023-05-18T12:59:56.537Z,1.77
2023-05-18T13:02:35.002Z,1.80
2023-05-18T13:05:10.014Z,2.28
2023-05-18T13:07:44.236Z,2.30
2023-05-18T13:10:13.209Z,2.40
2023-05-18T13:12:48.786Z,1.83
2023-05-18T13:15:22.539Z,1.85
2023-05-18T13:17:57.172Z,2.38
2023-05-18T13:20:36.599Z,2.30
2023-05-18T13:23:06.798Z,2.03
2023-05-18T13:25:33.759Z,2.03
2023-05-18T13:28:02.780Z,2.60
2023-05-18T13:30:30.147Z,2.17
2023-05-18T13:32:57.743Z,2.13
2023-05-18T13:35:24.440Z,2.30
2023-05-18T13:37:52.072Z,1.73
2023-05-18T13:40:20.588Z,2.13
2023-05-18T13:42:47.721Z,1.90
2023-05-18T13:45:16.276Z,2.05
2023-05-18T13:47:45.548Z,1.75
2023-05-18T13:50:12.323Z,2.20
2023-05-18T13:52:38.956Z,2.00
2023-05-18T13:55:07.462Z,1.73
2023-05-18T13:57:34.629Z,2.00
2023-05-18T14:00:11.279Z,2.00
2023-05-18T14:02:38.018Z,2.03
2023-05-18T14:05:05.157Z,1.70
2023-05-18T14:07:31.800Z,2.20
2023-05-18T14:09:58.403Z,2.23
2023-05-18T14:12:25.118Z,2.40
2023-05-18T14:14:51.731Z,1.60
2023-05-18T14:17:18.693Z,1.83
2023-05-18T14:19:45.356Z,1.80
2023-05-18T14:22:11.999Z,1.83
2023-05-18T14:24:38.581Z,2.10
2023-05-18T14:27:05.321Z,2.00
2023-05-18T14:29:35.261Z,1.83
2023-05-18T14:32:02.713Z,1.80
2023-05-18T14:34:29.373Z,2.40
2023-05-18T14:36:56.043Z,1.93
2023-05-18T14:39:22.633Z,1.77
2023-05-18T14:41:49.292Z,1.80
2023-05-18T14:44:15.875Z,1.92
2023-05-18T14:46:43.081Z,2.07
2023-05-18T14:49:09.964Z,1.70
2023-05-18T14:51:36.694Z,1.53
2023-05-18T14:54:03.402Z,1.87
2023-05-18T14:56:30.402Z,1.80
2023-05-18T14:58:57.131Z,1.93
2023-05-18T15:01:23.987Z,1.73
2023-05-18T15:03:50.735Z,1.70
2023-05-18T15:06:17.502Z,2.00
2023-05-18T15:08:45.196Z,1.80
2023-05-18T15:11:11.793Z,1.60
2023-05-18T15:13:40.439Z,1.73
2023-05-18T15:16:07.497Z,1.73
2023-05-18T15:18:34.196Z,1.73
2023-05-18T15:21:00.843Z,1.50
2023-05-18T15:23:27.474Z,1.57
2023-05-18T15:25:54.300Z,1.87
2023-05-18T15:28:21.276Z,2.20
2023-05-18T15:30:47.887Z,1.40
2023-05-18T15:33:14.521Z,1.87
2023-05-18T15:35:41.227Z,1.30
2023-05-18T15:38:07.924Z,1.70
2023-05-18T15:40:34.573Z,1.47
2023-05-18T15:43:01.195Z,1.53
2023-05-18T15:45:27.826Z,1.67
2023-05-18T15:47:54.463Z,1.90
2023-05-18T15:50:21.122Z,2.80
2023-05-18T15:52:47.754Z,1.63
2023-05-18T15:55:14.333Z,2.27
2023-05-18T15:57:40.917Z,1.93
2023-05-18T16:00:08.449Z,1.60
2023-05-18T16:02:35.080Z,1.63
2023-05-18T16:05:01.734Z,1.40
2023-05-18T16:07:28.446Z,1.50
2023-05-18T16:09:55.057Z,1.53
2023-05-18T16:12:21.664Z,1.80
2023-05-18T16:14:48.416Z,1.80
2023-05-18T16:17:15.292Z,1.70
2023-05-18T16:19:41.905Z,2.07
2023-05-18T16:22:09.160Z,1.70
2023-05-18T16:24:36.071Z,1.70
2023-05-18T16:27:02.707Z,1.33
2023-05-18T16:29:29.343Z,1.90
2023-05-18T16:31:56.192Z,1.33
2023-05-18T16:34:22.813Z,1.70
2023-05-18T16:36:49.452Z,1.30
2023-05-18T16:39:16.174Z,1.80
2023-05-18T16:41:42.798Z,1.87
2023-05-18T16:44:09.651Z,1.50
2023-05-18T16:46:36.339Z,1.73
2023-05-18T16:49:03.178Z,1.70
2023-05-18T16:51:29.880Z,1.30
2023-05-18T16:53:56.527Z,1.10
2023-05-18T16:56:23.372Z,1.33
2023-05-18T16:58:52.379Z,1.47
2023-05-18T17:03:53.326Z,1.30
2023-05-18T17:06:21.105Z,1.60
2023-05-18T17:08:47.734Z,1.50
2023-05-18T17:11:14.404Z,1.57
2023-05-18T17:13:41.061Z,1.60
2023-05-18T17:16:07.812Z,1.13
2023-05-18T17:18:34.474Z,1.50
2023-05-18T17:21:01.073Z,1.50
2023-05-18T17:23:27.727Z,1.53
2023-05-18T17:26:00.874Z,1.70
2023-05-18T17:28:32.186Z,1.47
2023-05-18T17:30:58.839Z,1.40
2023-05-18T17:33:25.510Z,1.60
2023-05-18T17:35:52.160Z,1.60
2023-05-18T17:38:21.480Z,1.50
2023-05-18T17:40:48.527Z,1.30
2023-05-18T17:43:15.131Z,1.90
2023-05-18T17:45:42.003Z,1.47
2023-05-18T17:48:08.782Z,1.30
2023-05-18T17:50:37.545Z,1.40
2023-05-18T17:53:04.875Z,1.30
2023-05-18T17:55:31.916Z,1.33
2023-05-18T17:58:00.854Z,1.50
2023-05-18T18:00:27.575Z,1.37
2023-05-18T18:02:55.114Z,1.43
2023-05-18T18:05:22.206Z,1.50
2023-05-18T18:07:48.822Z,1.43
2023-05-18T18:10:15.454Z,1.10
2023-05-18T18:12:42.611Z,1.77
2023-05-18T18:15:09.948Z,1.80
2023-05-18T18:17:36.649Z,1.63
2023-05-18T18:20:05.567Z,2.00
2023-05-18T18:22:33.598Z,1.77
2023-05-18T18:25:01.753Z,1.60
2023-05-18T18:27:28.381Z,2.03
2023-05-18T18:29:55.579Z,2.07
2023-05-18T18:32:22.212Z,2.03
2023-05-18T18:34:48.816Z,1.70
2023-05-18T18:37:15.687Z,1.20
2023-05-18T18:39:42.311Z,1.80
2023-05-18T18:42:08.986Z,1.57
2023-05-18T18:44:35.732Z,1.50
2023-05-18T18:47:02.619Z,1.47
2023-05-18T18:49:29.404Z,1.47
2023-05-18T18:51:58.593Z,1.70
2023-05-18T18:54:26.455Z,1.47
2023-05-18T18:56:53.156Z,1.83
2023-05-18T18:59:19.819Z,1.37
2023-05-18T19:01:46.670Z,1.43
2023-05-18T19:04:13.479Z,1.40
2023-05-18T19:06:40.174Z,1.53
2023-05-18T19:09:06.938Z,1.17
2023-05-18T19:11:33.755Z,1.80
2023-05-18T19:14:00.554Z,1.90
2023-05-18T19:16:27.397Z,1.40
2023-05-18T19:18:54.126Z,1.73
2023-05-18T19:21:21.360Z,1.43
2023-05-18T19:23:48.004Z,1.90
2023-05-18T19:26:14.655Z,1.60
2023-05-18T19:28:42.027Z,1.47
2023-05-18T19:31:11.508Z,1.50
2023-05-18T19:33:38.166Z,1.73
2023-05-18T19:36:05.028Z,1.97
2023-05-18T19:38:31.648Z,1.70
2023-05-18T19:40:58.253Z,1.63
2023-05-18T19:43:25.693Z,1.73
2023-05-18T19:45:52.374Z,1.50
2023-05-18T19:48:19.293Z,1.20
2023-05-18T19:50:46.031Z,1.43
2023-05-18T19:53:12.692Z,1.53
2023-05-18T19:55:39.471Z,1.33
2023-05-18T19:58:06.410Z,1.57
2023-05-18T20:00:33.640Z,1.50
2023-05-18T20:03:03.525Z,1.73
2023-05-18T20:05:30.291Z,1.50
2023-05-18T20:07:58.078Z,1.50
2023-05-18T20:10:25.277Z,1.60
2023-05-18T20:12:51.939Z,1.33
2023-05-18T20:15:19.038Z,1.60
2023-05-18T20:17:46.023Z,1.40
2023-05-18T20:20:12.736Z,1.67
2023-05-18T20:22:39.561Z,1.50
2023-05-18T20:25:06.797Z,1.70
2023-05-18T20:27:33.389Z,1.63
2023-05-18T20:30:00.508Z,1.23
2023-05-18T20:32:27.228Z,1.90
2023-05-18T20:34:53.860Z,1.53
2023-05-18T20:37:20.561Z,1.77
2023-05-18T20:39:50.539Z,1.80
2023-05-18T20:42:21.929Z,1.60
2023-05-18T20:44:51.206Z,1.90
2023-05-18T20:47:20.170Z,1.70
2023-05-18T20:49:47.578Z,1.60
2023-05-18T20:52:14.354Z,1.60
2023-05-18T20:54:41.157Z,1.60
2023-05-18T20:57:07.791Z,1.33
2023-05-18T20:59:34.479Z,1.77
2023-05-18T21:02:01.209Z,1.40
2023-05-18T21:04:27.914Z,1.87
2023-05-18T21:06:54.556Z,1.70
2023-05-18T21:09:21.449Z,1.87
2023-05-18T21:11:48.557Z,1.87
2023-05-18T21:14:15.798Z,2.00
2023-05-18T21:16:42.570Z,1.80
2023-05-18T21:19:09.364Z,1.80
2023-05-18T21:21:36.052Z,1.43
2023-05-18T21:24:02.706Z,1.70
2023-05-18T21:26:29.331Z,1.63
2023-05-18T21:28:56.043Z,1.60
2023-05-18T21:31:22.877Z,1.80
2023-05-18T21:33:51.006Z,1.70
2023-05-18T21:36:19.780Z,1.57
2023-05-18T21:38:46.611Z,1.70
2023-05-18T21:41:13.211Z,1.80
2023-05-18T21:43:39.909Z,1.63
2023-05-18T21:46:09.239Z,1.80
2023-05-18T21:48:36.186Z,2.13
2023-05-18T21:51:04.395Z,2.13
2023-05-18T21:53:31.100Z,2.07
2023-05-18T21:55:57.929Z,1.90
2023-05-18T21:58:24.962Z,1.77
2023-05-18T22:00:52.016Z,1.93
2023-05-18T22:03:18.762Z,2.23
2023-05-18T22:05:45.549Z,1.77
2023-05-18T22:08:12.171Z,2.17
2023-05-18T22:10:38.845Z,1.90
2023-05-18T22:13:05.455Z,2.10
2023-05-18T22:15:32.713Z,1.90
2023-05-18T22:18:01.798Z,1.70
2023-05-18T22:20:29.518Z,2.00
2023-05-18T22:22:56.261Z,1.87
2023-05-18T22:25:24.752Z,2.07
2023-05-18T22:27:54.872Z,1.87
2023-05-18T22:30:23.794Z,2.03
2023-05-18T22:32:50.947Z,1.83
2023-05-18T22:35:17.702Z,1.90
2023-05-18T22:37:44.857Z,1.67
2023-05-18T22:40:11.959Z,2.07
2023-05-18T22:42:38.593Z,2.13
2023-05-18T22:45:06.035Z,2.07
2023-05-18T22:47:33.632Z,2.37
2023-05-18T22:50:00.371Z,2.10
2023-05-18T22:52:27.871Z,1.97
2023-05-18T22:54:54.537Z,2.13
2023-05-18T22:57:21.185Z,2.30
2023-05-18T22:59:47.843Z,2.10
2023-05-18T23:02:14.802Z,2.50
2023-05-18T23:04:41.718Z,2.33
2023-05-18T23:07:08.413Z,2.20
2023-05-18T23:09:38.259Z,2.20
2023-05-18T23:12:06.129Z,2.43
2023-05-18T23:14:33.744Z,2.30
2023-05-18T23:17:00.761Z,2.37
2023-05-18T23:19:27.870Z,2.20
2023-05-18T23:21:54.859Z,2.70
2023-05-18T23:24:21.928Z,2.47
2023-05-18T23:26:48.562Z,2.20
2023-05-18T23:29:15.347Z,2.50
2023-05-18T23:31:41.987Z,2.60
2023-05-18T23:34:08.937Z,2.93
2023-05-18T23:36:38.837Z,2.67
2023-05-18T23:39:05.848Z,2.23
2023-05-18T23:41:35.672Z,2.57
2023-05-18T23:44:02.904Z,2.70
2023-05-18T23:46:30.086Z,2.50
2023-05-18T23:48:59.457Z,2.23
2023-05-18T23:51:30.735Z,2.60
2023-05-18T23:53:58.577Z,2.20
2023-05-18T23:56:25.395Z,2.43
2023-05-18T23:58:52.490Z,2.53
